sensor_id;sensor_type;location;lat;lon;timestamp;temperature;humidity
17827;DHT22;9038;48.208;16.308;2023-07-31T07:43:43;27.20;66.20
17827;DHT22;9038;48.208;16.308;2023-07-31T07:45:44;27.20;66.10
17827;DHT22;9038;48.208;16.308;2023-07-31T07:47:46;27.60;65.80
17827;DHT22;9038;48.208;16.308;2023-07-31T07:49:48;28.10;63.20
17827;DHT22;9038;48.208;16.308;2023-07-31T07:51:49;28.50;63.30
17827;DHT22;9038;48.208;16.308;2023-07-31T07:53:51;29.00;60.40
17827;DHT22;9038;48.208;16.308;2023-07-31T07:55:53;29.50;58.50
17827;DHT22;9038;48.208;16.308;2023-07-31T07:57:54;30.00;57.80
17827;DHT22;9038;48.208;16.308;2023-07-31T07:59:57;30.10;55.10
17827;DHT22;9038;48.208;16.308;2023-07-31T08:01:59;30.20;55.80
17827;DHT22;9038;48.208;16.308;2023-07-31T08:04:01;30.70;54.80
17827;DHT22;9038;48.208;16.308;2023-07-31T08:06:02;31.40;52.80
17827;DHT22;9038;48.208;16.308;2023-07-31T08:08:04;31.90;51.20
17827;DHT22;9038;48.208;16.308;2023-07-31T08:10:06;32.40;49.80
17827;DHT22;9038;48.208;16.308;2023-07-31T08:12:08;32.50;49.30
17827;DHT22;9038;48.208;16.308;2023-07-31T08:14:10;33.20;49.00
17827;DHT22;9038;48.208;16.308;2023-07-31T08:16:13;33.60;47.70
17827;DHT22;9038;48.208;16.308;2023-07-31T08:18:14;34.20;47.10
17827;DHT22;9038;48.208;16.308;2023-07-31T08:20:17;34.40;45.70
17827;DHT22;9038;48.208;16.308;2023-07-31T08:22:19;35.00;46.40
17827;DHT22;9038;48.208;16.308;2023-07-31T08:24:21;35.70;45.00
17827;DHT22;9038;48.208;16.308;2023-07-31T08:26:22;36.60;42.70
17827;DHT22;9038;48.208;16.308;2023-07-31T08:28:24;36.90;40.50
17827;DHT22;9038;48.208;16.308;2023-07-31T08:30:26;37.40;40.70
17827;DHT22;9038;48.208;16.308;2023-07-31T08:32:29;37.90;37.30
17827;DHT22;9038;48.208;16.308;2023-07-31T08:34:31;37.90;36.40
17827;DHT22;9038;48.208;16.308;2023-07-31T08:36:33;38.10;36.50
17827;DHT22;9038;48.208;16.308;2023-07-31T08:38:34;38.10;36.30
17827;DHT22;9038;48.208;16.308;2023-07-31T08:40:35;38.20;35.20
17827;DHT22;9038;48.208;16.308;2023-07-31T08:42:42;38.60;35.30
17827;DHT22;9038;48.208;16.308;2023-07-31T08:44:44;39.00;35.00
17827;DHT22;9038;48.208;16.308;2023-07-31T08:46:46;39.30;33.90
17827;DHT22;9038;48.208;16.308;2023-07-31T08:48:50;39.70;33.60
17827;DHT22;9038;48.208;16.308;2023-07-31T08:50:53;40.20;32.90
17827;DHT22;9038;48.208;16.308;2023-07-31T08:52:54;40.20;31.90
17827;DHT22;9038;48.208;16.308;2023-07-31T08:56:59;40.00;32.40
17827;DHT22;9038;48.208;16.308;2023-07-31T08:59:01;40.20;32.60
17827;DHT22;9038;48.208;16.308;2023-07-31T09:01:04;40.30;32.10
17827;DHT22;9038;48.208;16.308;2023-07-31T09:03:07;40.70;32.50
17827;DHT22;9038;48.208;16.308;2023-07-31T09:05:11;40.50;31.10
17827;DHT22;9038;48.208;16.308;2023-07-31T09:07:13;39.60;31.30
17827;DHT22;9038;48.208;16.308;2023-07-31T09:09:16;39.60;33.10
17827;DHT22;9038;48.208;16.308;2023-07-31T09:11:17;40.20;32.60
17827;DHT22;9038;48.208;16.308;2023-07-31T09:13:20;40.70;31.50
17827;DHT22;9038;48.208;16.308;2023-07-31T09:15:21;40.80;31.50
17827;DHT22;9038;48.208;16.308;2023-07-31T09:17:28;41.10;31.20
17827;DHT22;9038;48.208;16.308;2023-07-31T09:19:32;41.30;30.90
17827;DHT22;9038;48.208;16.308;2023-07-31T09:21:35;41.30;31.30
17827;DHT22;9038;48.208;16.308;2023-07-31T09:23:49;41.70;30.80
17827;DHT22;9038;48.208;16.308;2023-07-31T09:25:53;42.70;30.30
17827;DHT22;9038;48.208;16.308;2023-07-31T09:27:57;43.10;30.00
17827;DHT22;9038;48.208;16.308;2023-07-31T09:29:58;43.50;29.10
17827;DHT22;9038;48.208;16.308;2023-07-31T09:32:00;43.70;29.50
17827;DHT22;9038;48.208;16.308;2023-07-31T09:34:02;43.60;28.90
17827;DHT22;9038;48.208;16.308;2023-07-31T09:38:08;42.20;28.70
17827;DHT22;9038;48.208;16.308;2023-07-31T09:40:10;42.10;30.00
17827;DHT22;9038;48.208;16.308;2023-07-31T09:42:26;41.80;29.40
17827;DHT22;9038;48.208;16.308;2023-07-31T09:44:38;41.70;29.80
17827;DHT22;9038;48.208;16.308;2023-07-31T09:46:41;42.20;29.40
17827;DHT22;9038;48.208;16.308;2023-07-31T09:48:43;42.70;29.20
17827;DHT22;9038;48.208;16.308;2023-07-31T09:50:44;43.50;28.80
17827;DHT22;9038;48.208;16.308;2023-07-31T09:52:46;43.70;28.10
17827;DHT22;9038;48.208;16.308;2023-07-31T09:54:48;43.50;27.50
17827;DHT22;9038;48.208;16.308;2023-07-31T09:56:50;43.10;27.80
17827;DHT22;9038;48.208;16.308;2023-07-31T09:58:52;42.70;28.10
17827;DHT22;9038;48.208;16.308;2023-07-31T10:00:53;42.60;28.20
17827;DHT22;9038;48.208;16.308;2023-07-31T10:02:55;42.80;29.30
17827;DHT22;9038;48.208;16.308;2023-07-31T10:04:58;42.80;29.00
17827;DHT22;9038;48.208;16.308;2023-07-31T10:07:00;43.10;28.10
17827;DHT22;9038;48.208;16.308;2023-07-31T10:09:03;43.20;28.30
17827;DHT22;9038;48.208;16.308;2023-07-31T10:11:08;43.10;27.60
17827;DHT22;9038;48.208;16.308;2023-07-31T10:13:11;43.30;28.50
17827;DHT22;9038;48.208;16.308;2023-07-31T10:15:13;43.90;28.60
17827;DHT22;9038;48.208;16.308;2023-07-31T10:17:16;44.50;27.50
17827;DHT22;9038;48.208;16.308;2023-07-31T10:19:18;44.70;26.70
17827;DHT22;9038;48.208;16.308;2023-07-31T10:21:20;44.00;26.40
17827;DHT22;9038;48.208;16.308;2023-07-31T10:58:07;45.20;25.40
17827;DHT22;9038;48.208;16.308;2023-07-31T11:00:20;44.80;26.00
17827;DHT22;9038;48.208;16.308;2023-07-31T11:02:24;44.70;26.30
17827;DHT22;9038;48.208;16.308;2023-07-31T11:04:26;45.40;26.30
17827;DHT22;9038;48.208;16.308;2023-07-31T11:06:29;45.70;25.50
17827;DHT22;9038;48.208;16.308;2023-07-31T11:08:31;45.80;25.50
17827;DHT22;9038;48.208;16.308;2023-07-31T11:10:33;45.40;26.40
17827;DHT22;9038;48.208;16.308;2023-07-31T11:12:34;45.30;26.20
17827;DHT22;9038;48.208;16.308;2023-07-31T11:14:37;45.40;26.20
17827;DHT22;9038;48.208;16.308;2023-07-31T11:16:39;45.60;26.50
17827;DHT22;9038;48.208;16.308;2023-07-31T11:18:44;45.60;25.40
17827;DHT22;9038;48.208;16.308;2023-07-31T11:20:46;45.60;26.10
17827;DHT22;9038;48.208;16.308;2023-07-31T11:22:48;45.70;25.50
17827;DHT22;9038;48.208;16.308;2023-07-31T11:24:49;45.40;25.30
17827;DHT22;9038;48.208;16.308;2023-07-31T11:26:51;45.30;25.50
17827;DHT22;9038;48.208;16.308;2023-07-31T11:28:52;45.30;26.60
17827;DHT22;9038;48.208;16.308;2023-07-31T11:30:56;45.60;26.20
17827;DHT22;9038;48.208;16.308;2023-07-31T11:32:57;45.90;26.10
17827;DHT22;9038;48.208;16.308;2023-07-31T11:34:59;46.30;25.80
